sensor_id;sensor_type;location;lat;lon;timestamp;P1;durP1;ratioP1;P2;durP2;ratioP2
41101;SDS011;26845;50.190;19.178;2022-12-20T00:01:23;42.90;;;18.67;;
41101;SDS011;26845;50.190;19.178;2022-12-20T00:03:56;39.92;;;18.05;;
41101;SDS011;26845;50.190;19.178;2022-12-20T00:06:27;47.20;;;18.65;;
41101;SDS011;26845;50.190;19.178;2022-12-20T00:08:55;42.33;;;18.02;;
41101;SDS011;26845;50.190;19.178;2022-12-20T00:11:24;37.78;;;18.27;;
41101;SDS011;26845;50.190;19.178;2022-12-20T00:13:53;34.35;;;16.30;;
41101;SDS011;26845;50.190;19.178;2022-12-20T00:16:22;40.25;;;17.25;;
41101;SDS011;26845;50.190;19.178;2022-12-20T00:21:20;36.85;;;15.95;;
41101;SDS011;26845;50.190;19.178;2022-12-20T00:23:48;35.98;;;16.02;;
41101;SDS011;26845;50.190;19.178;2022-12-20T00:26:18;33.18;;;14.93;;
41101;SDS011;26845;50.190;19.178;2022-12-20T00:28:48;31.25;;;15.23;;
41101;SDS011;26845;50.190;19.178;2022-12-20T00:31:15;29.65;;;14.00;;
41101;SDS011;26845;50.190;19.178;2022-12-20T00:33:45;25.27;;;13.38;;
41101;SDS011;26845;50.190;19.178;2022-12-20T00:36:16;30.90;;;14.47;;
41101;SDS011;26845;50.190;19.178;2022-12-20T00:38:46;29.90;;;14.47;;
41101;SDS011;26845;50.190;19.178;2022-12-20T00:41:16;24.47;;;12.40;;
41101;SDS011;26845;50.190;19.178;2022-12-20T00:43:46;25.72;;;13.45;;
41101;SDS011;26845;50.190;19.178;2022-12-20T00:46:16;29.12;;;14.35;;
41101;SDS011;26845;50.190;19.178;2022-12-20T00:48:44;29.75;;;14.20;;
41101;SDS011;26845;50.190;19.178;2022-12-20T00:51:13;28.98;;;13.88;;
41101;SDS011;26845;50.190;19.178;2022-12-20T00:53:44;28.05;;;14.25;;
41101;SDS011;26845;50.190;19.178;2022-12-20T00:56:12;27.02;;;13.75;;
41101;SDS011;26845;50.190;19.178;2022-12-20T00:58:40;30.27;;;15.15;;
41101;SDS011;26845;50.190;19.178;2022-12-20T01:01:21;23.98;;;11.97;;
41101;SDS011;26845;50.190;19.178;2022-12-20T01:03:49;26.57;;;13.83;;
41101;SDS011;26845;50.190;19.178;2022-12-20T01:06:17;26.77;;;12.85;;
41101;SDS011;26845;50.190;19.178;2022-12-20T01:08:45;25.60;;;12.68;;
41101;SDS011;26845;50.190;19.178;2022-12-20T01:11:13;23.75;;;12.35;;
41101;SDS011;26845;50.190;19.178;2022-12-20T01:13:46;26.23;;;13.22;;
41101;SDS011;26845;50.190;19.178;2022-12-20T01:16:21;23.92;;;12.65;;
41101;SDS011;26845;50.190;19.178;2022-12-20T01:19:00;30.97;;;13.70;;
41101;SDS011;26845;50.190;19.178;2022-12-20T01:21:28;26.85;;;11.53;;
41101;SDS011;26845;50.190;19.178;2022-12-20T01:23:56;36.17;;;17.15;;
41101;SDS011;26845;50.190;19.178;2022-12-20T01:26:24;34.23;;;15.80;;
41101;SDS011;26845;50.190;19.178;2022-12-20T01:28:55;28.67;;;14.07;;
41101;SDS011;26845;50.190;19.178;2022-12-20T01:31:25;30.15;;;14.47;;
41101;SDS011;26845;50.190;19.178;2022-12-20T01:33:53;28.83;;;14.40;;
41101;SDS011;26845;50.190;19.178;2022-12-20T01:36:21;31.77;;;15.18;;
41101;SDS011;26845;50.190;19.178;2022-12-20T01:41:38;34.67;;;15.80;;
41101;SDS011;26845;50.190;19.178;2022-12-20T01:46:50;31.65;;;14.47;;
41101;SDS011;26845;50.190;19.178;2022-12-20T01:49:30;28.07;;;12.78;;
41101;SDS011;26845;50.190;19.178;2022-12-20T01:54:40;30.88;;;13.75;;
41101;SDS011;26845;50.190;19.178;2022-12-20T01:57:12;31.73;;;14.68;;
41101;SDS011;26845;50.190;19.178;2022-12-20T01:59:49;31.17;;;14.45;;
41101;SDS011;26845;50.190;19.178;2022-12-20T02:02:19;32.67;;;15.43;;
41101;SDS011;26845;50.190;19.178;2022-12-20T02:04:46;31.70;;;14.63;;
41101;SDS011;26845;50.190;19.178;2022-12-20T02:07:16;33.67;;;15.58;;
41101;SDS011;26845;50.190;19.178;2022-12-20T02:09:45;29.45;;;14.07;;
41101;SDS011;26845;50.190;19.178;2022-12-20T02:12:57;32.93;;;16.23;;
41101;SDS011;26845;50.190;19.178;2022-12-20T02:26:49;32.75;;;16.20;;
41101;SDS011;26845;50.190;19.178;2022-12-20T02:32:56;29.63;;;15.00;;
41101;SDS011;26845;50.190;19.178;2022-12-20T02:35:32;26.27;;;14.30;;
41101;SDS011;26845;50.190;19.178;2022-12-20T02:38:23;27.17;;;14.18;;
41101;SDS011;26845;50.190;19.178;2022-12-20T02:40:50;33.88;;;16.42;;
41101;SDS011;26845;50.190;19.178;2022-12-20T02:43:31;30.25;;;15.70;;
41101;SDS011;26845;50.190;19.178;2022-12-20T02:46:20;31.07;;;15.63;;
41101;SDS011;26845;50.190;19.178;2022-12-20T02:48:49;32.90;;;15.53;;
41101;SDS011;26845;50.190;19.178;2022-12-20T02:51:20;31.45;;;15.00;;
41101;SDS011;26845;50.190;19.178;2022-12-20T02:53:49;27.00;;;13.47;;
41101;SDS011;26845;50.190;19.178;2022-12-20T03:01:51;32.23;;;13.83;;
41101;SDS011;26845;50.190;19.178;2022-12-20T03:09:29;34.45;;;15.90;;
41101;SDS011;26845;50.190;19.178;2022-12-20T03:14:25;32.30;;;14.13;;
41101;SDS011;26845;50.190;19.178;2022-12-20T03:16:53;30.32;;;13.88;;
41101;SDS011;26845;50.190;19.178;2022-12-20T03:19:19;31.87;;;15.78;;
41101;SDS011;26845;50.190;19.178;2022-12-20T03:21:46;29.70;;;15.10;;
41101;SDS011;26845;50.190;19.178;2022-12-20T03:24:13;25.85;;;13.20;;
41101;SDS011;26845;50.190;19.178;2022-12-20T03:26:40;31.93;;;16.12;;
41101;SDS011;26845;50.190;19.178;2022-12-20T03:29:08;31.75;;;15.38;;
41101;SDS011;26845;50.190;19.178;2022-12-20T03:31:35;31.80;;;14.58;;
41101;SDS011;26845;50.190;19.178;2022-12-20T03:34:03;32.63;;;15.28;;
41101;SDS011;26845;50.190;19.178;2022-12-20T03:36:30;34.73;;;16.35;;
41101;SDS011;26845;50.190;19.178;2022-12-20T03:38:56;36.08;;;17.77;;
41101;SDS011;26845;50.190;19.178;2022-12-20T03:41:24;36.20;;;17.48;;
41101;SDS011;26845;50.190;19.178;2022-12-20T03:43:52;30.55;;;15.53;;
41101;SDS011;26845;50.190;19.178;2022-12-20T03:46:19;33.70;;;16.65;;
41101;SDS011;26845;50.190;19.178;2022-12-20T03:48:46;32.03;;;16.12;;
41101;SDS011;26845;50.190;19.178;2022-12-20T03:51:12;37.25;;;17.62;;
41101;SDS011;26845;50.190;19.178;2022-12-20T03:53:39;33.80;;;16.65;;
41101;SDS011;26845;50.190;19.178;2022-12-20T03:56:06;32.05;;;14.23;;
41101;SDS011;26845;50.190;19.178;2022-12-20T03:58:33;28.02;;;13.05;;
41101;SDS011;26845;50.190;19.178;2022-12-20T04:01:00;33.38;;;12.75;;
41101;SDS011;26845;50.190;19.178;2022-12-20T04:03:27;37.78;;;15.55;;
41101;SDS011;26845;50.190;19.178;2022-12-20T04:05:54;33.20;;;15.85;;
41101;SDS011;26845;50.190;19.178;2022-12-20T04:08:21;37.42;;;18.57;;
41101;SDS011;26845;50.190;19.178;2022-12-20T04:10:48;36.68;;;16.12;;
41101;SDS011;26845;50.190;19.178;2022-12-20T04:13:33;41.98;;;18.45;;
41101;SDS011;26845;50.190;19.178;2022-12-20T04:15:59;40.85;;;17.80;;
41101;SDS011;26845;50.190;19.178;2022-12-20T04:18:26;38.30;;;17.27;;
41101;SDS011;26845;50.190;19.178;2022-12-20T04:20:53;32.78;;;16.27;;
41101;SDS011;26845;50.190;19.178;2022-12-20T04:23:20;38.33;;;16.27;;
41101;SDS011;26845;50.190;19.178;2022-12-20T04:25:47;37.75;;;18.02;;
41101;SDS011;26845;50.190;19.178;2022-12-20T04:28:13;39.45;;;18.62;;
41101;SDS011;26845;50.190;19.178;2022-12-20T04:30:40;37.73;;;16.48;;
41101;SDS011;26845;50.190;19.178;2022-12-20T04:33:07;43.92;;;21.00;;
41101;SDS011;26845;50.190;19.178;2022-12-20T04:35:34;34.83;;;16.57;;
41101;SDS011;26845;50.190;19.178;2022-12-20T04:38:03;31.10;;;15.25;;
41101;SDS011;26845;50.190;19.178;2022-12-20T04:40:30;35.00;;;16.55;;
41101;SDS011;26845;50.190;19.178;2022-12-20T04:42:57;34.13;;;16.17;;
41101;SDS011;26845;50.190;19.178;2022-12-20T04:45:23;34.85;;;16.02;;
41101;SDS011;26845;50.190;19.178;2022-12-20T04:47:50;36.50;;;17.15;;
41101;SDS011;26845;50.190;19.178;2022-12-20T04:50:17;40.52;;;18.15;;
41101;SDS011;26845;50.190;19.178;2022-12-20T04:52:44;40.20;;;18.37;;
41101;SDS011;26845;50.190;19.178;2022-12-20T04:55:30;31.05;;;14.07;;
41101;SDS011;26845;50.190;19.178;2022-12-20T04:58:05;34.85;;;16.62;;
41101;SDS011;26845;50.190;19.178;2022-12-20T05:00:33;34.55;;;16.20;;
41101;SDS011;26845;50.190;19.178;2022-12-20T05:03:00;39.83;;;19.10;;
41101;SDS011;26845;50.190;19.178;2022-12-20T05:05:27;39.73;;;17.75;;
41101;SDS011;26845;50.190;19.178;2022-12-20T05:07:54;36.28;;;17.07;;
41101;SDS011;26845;50.190;19.178;2022-12-20T05:10:21;37.85;;;16.57;;
41101;SDS011;26845;50.190;19.178;2022-12-20T05:15:18;44.18;;;19.65;;
41101;SDS011;26845;50.190;19.178;2022-12-20T05:17:45;38.08;;;18.25;;
41101;SDS011;26845;50.190;19.178;2022-12-20T05:20:12;44.77;;;18.87;;
41101;SDS011;26845;50.190;19.178;2022-12-20T05:22:39;39.73;;;18.48;;
41101;SDS011;26845;50.190;19.178;2022-12-20T05:25:24;45.55;;;19.90;;
41101;SDS011;26845;50.190;19.178;2022-12-20T05:28:09;36.98;;;17.65;;
41101;SDS011;26845;50.190;19.178;2022-12-20T05:30:36;32.48;;;16.93;;
41101;SDS011;26845;50.190;19.178;2022-12-20T05:33:03;36.70;;;16.30;;
41101;SDS011;26845;50.190;19.178;2022-12-20T05:35:30;34.43;;;17.35;;
41101;SDS011;26845;50.190;19.178;2022-12-20T05:37:57;32.35;;;16.70;;
41101;SDS011;26845;50.190;19.178;2022-12-20T05:40:23;33.78;;;16.32;;
41101;SDS011;26845;50.190;19.178;2022-12-20T05:42:52;33.40;;;17.48;;
41101;SDS011;26845;50.190;19.178;2022-12-20T05:45:20;32.17;;;16.67;;
41101;SDS011;26845;50.190;19.178;2022-12-20T05:47:47;33.00;;;15.90;;
41101;SDS011;26845;50.190;19.178;2022-12-20T05:50:14;32.63;;;16.42;;
41101;SDS011;26845;50.190;19.178;2022-12-20T05:52:42;35.00;;;17.10;;
41101;SDS011;26845;50.190;19.178;2022-12-20T05:55:09;36.20;;;17.87;;
41101;SDS011;26845;50.190;19.178;2022-12-20T05:57:36;35.58;;;17.60;;
41101;SDS011;26845;50.190;19.178;2022-12-20T06:00:03;35.00;;;17.02;;
41101;SDS011;26845;50.190;19.178;2022-12-20T06:02:31;36.65;;;16.30;;
41101;SDS011;26845;50.190;19.178;2022-12-20T06:04:58;32.00;;;14.95;;
41101;SDS011;26845;50.190;19.178;2022-12-20T06:07:25;36.73;;;17.25;;
41101;SDS011;26845;50.190;19.178;2022-12-20T06:09:54;36.15;;;17.75;;
41101;SDS011;26845;50.190;19.178;2022-12-20T06:12:21;34.85;;;16.90;;
41101;SDS011;26845;50.190;19.178;2022-12-20T06:14:48;35.63;;;18.02;;
41101;SDS011;26845;50.190;19.178;2022-12-20T06:17:16;39.73;;;19.75;;
41101;SDS011;26845;50.190;19.178;2022-12-20T06:19:44;36.63;;;16.20;;
41101;SDS011;26845;50.190;19.178;2022-12-20T06:22:11;35.50;;;17.15;;
41101;SDS011;26845;50.190;19.178;2022-12-20T06:24:38;39.03;;;19.55;;
41101;SDS011;26845;50.190;19.178;2022-12-20T06:27:05;38.20;;;18.12;;
41101;SDS011;26845;50.190;19.178;2022-12-20T06:29:32;36.68;;;16.95;;
41101;SDS011;26845;50.190;19.178;2022-12-20T06:31:59;41.48;;;18.75;;
41101;SDS011;26845;50.190;19.178;2022-12-20T06:34:25;42.62;;;18.35;;
41101;SDS011;26845;50.190;19.178;2022-12-20T06:36:52;41.25;;;17.98;;
41101;SDS011;26845;50.190;19.178;2022-12-20T06:39:19;49.05;;;19.85;;
41101;SDS011;26845;50.190;19.178;2022-12-20T06:41:46;47.23;;;19.95;;
41101;SDS011;26845;50.190;19.178;2022-12-20T06:44:13;43.33;;;16.87;;
41101;SDS011;26845;50.190;19.178;2022-12-20T06:46:40;53.73;;;23.75;;
41101;SDS011;26845;50.190;19.178;2022-12-20T06:49:09;52.90;;;22.58;;
41101;SDS011;26845;50.190;19.178;2022-12-20T06:51:36;49.55;;;21.73;;
41101;SDS011;26845;50.190;19.178;2022-12-20T06:54:03;48.50;;;21.73;;
41101;SDS011;26845;50.190;19.178;2022-12-20T06:56:30;48.50;;;22.50;;
41101;SDS011;26845;50.190;19.178;2022-12-20T06:58:56;50.52;;;22.32;;
41101;SDS011;26845;50.190;19.178;2022-12-20T07:01:23;46.88;;;23.22;;
41101;SDS011;26845;50.190;19.178;2022-12-20T07:03:50;48.40;;;20.72;;
41101;SDS011;26845;50.190;19.178;2022-12-20T07:06:17;45.15;;;20.57;;
41101;SDS011;26845;50.190;19.178;2022-12-20T07:08:44;38.88;;;19.57;;
41101;SDS011;26845;50.190;19.178;2022-12-20T07:11:11;46.83;;;20.50;;
41101;SDS011;26845;50.190;19.178;2022-12-20T07:13:37;43.55;;;20.05;;
41101;SDS011;26845;50.190;19.178;2022-12-20T07:16:04;47.53;;;21.90;;
41101;SDS011;26845;50.190;19.178;2022-12-20T07:18:32;51.53;;;23.75;;
41101;SDS011;26845;50.190;19.178;2022-12-20T07:21:01;53.42;;;23.02;;
41101;SDS011;26845;50.190;19.178;2022-12-20T07:23:30;47.67;;;19.55;;
41101;SDS011;26845;50.190;19.178;2022-12-20T07:25:58;52.38;;;22.77;;
41101;SDS011;26845;50.190;19.178;2022-12-20T07:28:28;51.92;;;24.30;;
41101;SDS011;26845;50.190;19.178;2022-12-20T07:30:59;50.40;;;22.95;;
41101;SDS011;26845;50.190;19.178;2022-12-20T07:33:28;44.50;;;19.82;;
41101;SDS011;26845;50.190;19.178;2022-12-20T07:36:04;50.60;;;20.77;;
41101;SDS011;26845;50.190;19.178;2022-12-20T07:38:34;34.78;;;16.02;;
41101;SDS011;26845;50.190;19.178;2022-12-20T07:41:07;48.63;;;23.30;;
41101;SDS011;26845;50.190;19.178;2022-12-20T07:43:36;60.20;;;26.20;;
41101;SDS011;26845;50.190;19.178;2022-12-20T07:46:04;61.15;;;26.60;;
41101;SDS011;26845;50.190;19.178;2022-12-20T07:48:32;51.68;;;24.82;;
41101;SDS011;26845;50.190;19.178;2022-12-20T07:51:04;55.43;;;26.35;;
41101;SDS011;26845;50.190;19.178;2022-12-20T07:53:39;54.30;;;25.43;;
41101;SDS011;26845;50.190;19.178;2022-12-20T07:56:09;51.10;;;23.47;;
41101;SDS011;26845;50.190;19.178;2022-12-20T07:58:38;52.33;;;23.35;;
41101;SDS011;26845;50.190;19.178;2022-12-20T08:01:07;47.00;;;21.87;;
41101;SDS011;26845;50.190;19.178;2022-12-20T08:06:13;46.13;;;17.85;;
41101;SDS011;26845;50.190;19.178;2022-12-20T08:08:43;50.15;;;19.70;;
41101;SDS011;26845;50.190;19.178;2022-12-20T08:11:16;61.58;;;25.92;;
41101;SDS011;26845;50.190;19.178;2022-12-20T08:13:46;41.37;;;16.70;;
41101;SDS011;26845;50.190;19.178;2022-12-20T08:16:15;50.83;;;23.25;;
41101;SDS011;26845;50.190;19.178;2022-12-20T08:18:50;43.70;;;17.02;;
41101;SDS011;26845;50.190;19.178;2022-12-20T08:21:17;47.53;;;23.10;;
41101;SDS011;26845;50.190;19.178;2022-12-20T08:23:44;41.92;;;18.60;;
41101;SDS011;26845;50.190;19.178;2022-12-20T08:26:11;42.40;;;16.85;;
41101;SDS011;26845;50.190;19.178;2022-12-20T08:28:38;56.65;;;23.32;;
41101;SDS011;26845;50.190;19.178;2022-12-20T08:31:07;37.85;;;16.67;;
41101;SDS011;26845;50.190;19.178;2022-12-20T08:33:41;45.15;;;22.30;;
41101;SDS011;26845;50.190;19.178;2022-12-20T08:38:48;40.08;;;18.87;;
41101;SDS011;26845;50.190;19.178;2022-12-20T08:41:21;47.33;;;22.95;;
41101;SDS011;26845;50.190;19.178;2022-12-20T08:43:47;35.63;;;16.70;;
41101;SDS011;26845;50.190;19.178;2022-12-20T08:46:22;42.43;;;22.20;;
41101;SDS011;26845;50.190;19.178;2022-12-20T08:48:49;34.95;;;16.77;;
41101;SDS011;26845;50.190;19.178;2022-12-20T08:51:16;45.95;;;19.17;;
41101;SDS011;26845;50.190;19.178;2022-12-20T08:53:43;37.40;;;17.32;;
41101;SDS011;26845;50.190;19.178;2022-12-20T08:56:10;37.15;;;16.77;;
41101;SDS011;26845;50.190;19.178;2022-12-20T08:58:42;55.05;;;25.88;;
41101;SDS011;26845;50.190;19.178;2022-12-20T09:01:12;44.18;;;18.90;;
41101;SDS011;26845;50.190;19.178;2022-12-20T09:03:42;59.10;;;26.15;;
41101;SDS011;26845;50.190;19.178;2022-12-20T09:06:19;64.05;;;26.52;;
41101;SDS011;26845;50.190;19.178;2022-12-20T09:08:48;56.65;;;25.10;;
41101;SDS011;26845;50.190;19.178;2022-12-20T09:11:21;63.58;;;25.72;;
41101;SDS011;26845;50.190;19.178;2022-12-20T09:13:55;55.60;;;25.92;;
41101;SDS011;26845;50.190;19.178;2022-12-20T09:16:26;41.92;;;18.27;;
41101;SDS011;26845;50.190;19.178;2022-12-20T09:18:56;50.63;;;22.60;;
41101;SDS011;26845;50.190;19.178;2022-12-20T09:21:27;43.95;;;19.48;;
41101;SDS011;26845;50.190;19.178;2022-12-20T09:23:55;49.53;;;23.10;;
41101;SDS011;26845;50.190;19.178;2022-12-20T09:26:27;46.80;;;24.02;;
41101;SDS011;26845;50.190;19.178;2022-12-20T09:28:55;46.25;;;23.25;;
41101;SDS011;26845;50.190;19.178;2022-12-20T09:31:25;34.03;;;13.25;;
41101;SDS011;26845;50.190;19.178;2022-12-20T09:33:54;46.37;;;21.80;;
41101;SDS011;26845;50.190;19.178;2022-12-20T09:36:23;40.63;;;21.17;;
41101;SDS011;26845;50.190;19.178;2022-12-20T09:38:52;40.35;;;19.95;;
41101;SDS011;26845;50.190;19.178;2022-12-20T09:46:54;43.92;;;21.37;;
41101;SDS011;26845;50.190;19.178;2022-12-20T09:49:34;37.75;;;17.25;;
41101;SDS011;26845;50.190;19.178;2022-12-20T10:00:33;41.80;;;20.32;;
41101;SDS011;26845;50.190;19.178;2022-12-20T10:03:08;45.73;;;22.00;;
41101;SDS011;26845;50.190;19.178;2022-12-20T10:05:43;44.35;;;22.35;;
41101;SDS011;26845;50.190;19.178;2022-12-20T10:11:07;46.80;;;22.32;;
41101;SDS011;26845;50.190;19.178;2022-12-20T10:16:50;47.60;;;23.77;;
41101;SDS011;26845;50.190;19.178;2022-12-20T10:19:31;53.23;;;23.83;;
41101;SDS011;26845;50.190;19.178;2022-12-20T10:22:08;57.78;;;24.57;;
41101;SDS011;26845;50.190;19.178;2022-12-20T10:25:20;48.98;;;22.17;;
41101;SDS011;26845;50.190;19.178;2022-12-20T10:27:50;45.75;;;19.48;;
41101;SDS011;26845;50.190;19.178;2022-12-20T10:30:21;38.40;;;16.42;;
41101;SDS011;26845;50.190;19.178;2022-12-20T10:32:51;40.48;;;17.95;;
41101;SDS011;26845;50.190;19.178;2022-12-20T10:35:29;42.38;;;20.27;;
41101;SDS011;26845;50.190;19.178;2022-12-20T10:38:06;35.92;;;17.17;;
41101;SDS011;26845;50.190;19.178;2022-12-20T10:40:38;31.55;;;14.83;;
41101;SDS011;26845;50.190;19.178;2022-12-20T10:43:21;45.67;;;19.92;;
41101;SDS011;26845;50.190;19.178;2022-12-20T10:46:12;41.77;;;19.73;;
41101;SDS011;26845;50.190;19.178;2022-12-20T10:48:39;39.40;;;20.60;;
41101;SDS011;26845;50.190;19.178;2022-12-20T10:56:27;26.02;;;10.65;;
41101;SDS011;26845;50.190;19.178;2022-12-20T11:01:46;32.42;;;12.88;;
41101;SDS011;26845;50.190;19.178;2022-12-20T11:07:00;35.33;;;14.40;;
41101;SDS011;26845;50.190;19.178;2022-12-20T11:09:32;29.07;;;11.70;;
41101;SDS011;26845;50.190;19.178;2022-12-20T11:12:16;40.90;;;21.40;;
41101;SDS011;26845;50.190;19.178;2022-12-20T11:14:45;37.65;;;13.05;;
41101;SDS011;26845;50.190;19.178;2022-12-20T11:34:44;46.30;;;21.07;;
41101;SDS011;26845;50.190;19.178;2022-12-20T11:39:57;38.90;;;20.30;;
41101;SDS011;26845;50.190;19.178;2022-12-20T11:48:54;41.05;;;20.08;;
41101;SDS011;26845;50.190;19.178;2022-12-20T11:51:52;42.53;;;20.32;;
41101;SDS011;26845;50.190;19.178;2022-12-20T11:54:27;43.68;;;21.62;;
41101;SDS011;26845;50.190;19.178;2022-12-20T11:57:05;37.33;;;19.98;;
41101;SDS011;26845;50.190;19.178;2022-12-20T11:59:56;41.68;;;20.70;;
41101;SDS011;26845;50.190;19.178;2022-12-20T12:02:33;46.00;;;22.52;;
41101;SDS011;26845;50.190;19.178;2022-12-20T12:08:44;46.75;;;21.35;;
41101;SDS011;26845;50.190;19.178;2022-12-20T12:13:56;41.77;;;20.72;;
41101;SDS011;26845;50.190;19.178;2022-12-20T12:16:26;41.18;;;19.73;;
41101;SDS011;26845;50.190;19.178;2022-12-20T12:19:04;51.90;;;23.18;;
41101;SDS011;26845;50.190;19.178;2022-12-20T12:21:36;55.52;;;24.30;;
41101;SDS011;26845;50.190;19.178;2022-12-20T12:26:58;44.48;;;22.58;;
41101;SDS011;26845;50.190;19.178;2022-12-20T12:29:27;49.20;;;23.20;;
41101;SDS011;26845;50.190;19.178;2022-12-20T12:32:03;46.15;;;18.77;;
41101;SDS011;26845;50.190;19.178;2022-12-20T12:46:13;57.50;;;24.87;;
41101;SDS011;26845;50.190;19.178;2022-12-20T12:51:33;51.83;;;22.62;;
41101;SDS011;26845;50.190;19.178;2022-12-20T12:54:24;49.58;;;21.25;;
41101;SDS011;26845;50.190;19.178;2022-12-20T12:57:01;56.42;;;24.15;;
41101;SDS011;26845;50.190;19.178;2022-12-20T12:59:41;53.13;;;23.73;;
41101;SDS011;26845;50.190;19.178;2022-12-20T13:12:55;51.20;;;24.27;;
41101;SDS011;26845;50.190;19.178;2022-12-20T13:18:01;47.20;;;24.32;;
41101;SDS011;26845;50.190;19.178;2022-12-20T13:20:42;50.50;;;24.27;;
41101;SDS011;26845;50.190;19.178;2022-12-20T13:23:20;38.92;;;18.37;;
41101;SDS011;26845;50.190;19.178;2022-12-20T13:26:01;44.27;;;21.20;;
41101;SDS011;26845;50.190;19.178;2022-12-20T13:33:45;47.88;;;22.90;;
41101;SDS011;26845;50.190;19.178;2022-12-20T13:39:00;50.58;;;21.10;;
41101;SDS011;26845;50.190;19.178;2022-12-20T13:44:44;49.15;;;24.00;;
41101;SDS011;26845;50.190;19.178;2022-12-20T13:53:00;45.35;;;20.55;;
41101;SDS011;26845;50.190;19.178;2022-12-20T13:55:33;48.15;;;24.27;;
41101;SDS011;26845;50.190;19.178;2022-12-20T13:58:18;40.50;;;21.82;;
41101;SDS011;26845;50.190;19.178;2022-12-20T14:00:45;46.98;;;21.90;;
41101;SDS011;26845;50.190;19.178;2022-12-20T14:03:25;40.55;;;18.57;;
41101;SDS011;26845;50.190;19.178;2022-12-20T14:05:57;49.48;;;22.50;;
41101;SDS011;26845;50.190;19.178;2022-12-20T14:08:28;39.40;;;20.05;;
41101;SDS011;26845;50.190;19.178;2022-12-20T14:11:11;41.73;;;19.73;;
41101;SDS011;26845;50.190;19.178;2022-12-20T14:13:59;45.52;;;19.45;;
41101;SDS011;26845;50.190;19.178;2022-12-20T14:16:29;37.58;;;16.60;;
41101;SDS011;26845;50.190;19.178;2022-12-20T14:19:10;51.23;;;23.42;;
41101;SDS011;26845;50.190;19.178;2022-12-20T14:21:41;46.37;;;16.42;;
41101;SDS011;26845;50.190;19.178;2022-12-20T14:24:13;36.70;;;17.25;;
41101;SDS011;26845;50.190;19.178;2022-12-20T14:26:45;45.20;;;21.23;;
41101;SDS011;26845;50.190;19.178;2022-12-20T14:29:17;30.70;;;13.35;;
41101;SDS011;26845;50.190;19.178;2022-12-20T14:31:52;37.50;;;17.02;;
41101;SDS011;26845;50.190;19.178;2022-12-20T14:34:29;50.15;;;24.50;;
41101;SDS011;26845;50.190;19.178;2022-12-20T14:40:13;54.60;;;23.25;;
41101;SDS011;26845;50.190;19.178;2022-12-20T14:42:42;50.67;;;24.52;;
41101;SDS011;26845;50.190;19.178;2022-12-20T14:47:53;61.18;;;27.32;;
41101;SDS011;26845;50.190;19.178;2022-12-20T14:50:29;46.33;;;19.45;;
41101;SDS011;26845;50.190;19.178;2022-12-20T14:52:59;62.60;;;28.80;;
41101;SDS011;26845;50.190;19.178;2022-12-20T14:55:35;56.92;;;25.60;;
41101;SDS011;26845;50.190;19.178;2022-12-20T14:58:24;42.13;;;19.55;;
41101;SDS011;26845;50.190;19.178;2022-12-20T15:00:58;52.43;;;23.77;;
41101;SDS011;26845;50.190;19.178;2022-12-20T15:03:53;53.40;;;26.20;;
41101;SDS011;26845;50.190;19.178;2022-12-20T15:09:10;64.55;;;27.20;;
41101;SDS011;26845;50.190;19.178;2022-12-20T15:11:37;50.28;;;22.77;;
41101;SDS011;26845;50.190;19.178;2022-12-20T15:17:08;53.83;;;24.35;;
41101;SDS011;26845;50.190;19.178;2022-12-20T15:19:35;58.10;;;24.10;;
41101;SDS011;26845;50.190;19.178;2022-12-20T15:22:04;61.40;;;26.25;;
41101;SDS011;26845;50.190;19.178;2022-12-20T15:24:41;54.93;;;23.55;;
41101;SDS011;26845;50.190;19.178;2022-12-20T15:27:12;60.00;;;24.32;;
41101;SDS011;26845;50.190;19.178;2022-12-20T15:29:42;63.92;;;27.50;;
41101;SDS011;26845;50.190;19.178;2022-12-20T15:34:47;49.40;;;24.07;;
41101;SDS011;26845;50.190;19.178;2022-12-20T15:37:14;49.83;;;25.97;;
41101;SDS011;26845;50.190;19.178;2022-12-20T15:39:42;51.13;;;25.27;;
41101;SDS011;26845;50.190;19.178;2022-12-20T15:42:10;57.25;;;26.65;;
41101;SDS011;26845;50.190;19.178;2022-12-20T15:44:41;64.53;;;28.32;;
41101;SDS011;26845;50.190;19.178;2022-12-20T15:47:11;66.62;;;28.32;;
41101;SDS011;26845;50.190;19.178;2022-12-20T15:49:41;54.15;;;26.17;;
41101;SDS011;26845;50.190;19.178;2022-12-20T15:52:15;54.23;;;26.87;;
41101;SDS011;26845;50.190;19.178;2022-12-20T15:54:43;56.05;;;24.10;;
41101;SDS011;26845;50.190;19.178;2022-12-20T15:57:12;53.68;;;27.10;;
41101;SDS011;26845;50.190;19.178;2022-12-20T15:59:39;53.63;;;26.33;;
41101;SDS011;26845;50.190;19.178;2022-12-20T16:02:25;55.75;;;27.35;;
41101;SDS011;26845;50.190;19.178;2022-12-20T16:04:47;51.20;;;23.70;;
41101;SDS011;26845;50.190;19.178;2022-12-20T16:07:15;58.38;;;24.82;;
41101;SDS011;26845;50.190;19.178;2022-12-20T16:09:44;50.28;;;24.95;;
41101;SDS011;26845;50.190;19.178;2022-12-20T16:12:18;61.20;;;29.07;;
41101;SDS011;26845;50.190;19.178;2022-12-20T16:14:53;58.78;;;29.25;;
41101;SDS011;26845;50.190;19.178;2022-12-20T16:17:20;64.90;;;29.63;;
41101;SDS011;26845;50.190;19.178;2022-12-20T16:19:54;54.55;;;26.62;;
41101;SDS011;26845;50.190;19.178;2022-12-20T16:22:21;62.67;;;29.02;;
41101;SDS011;26845;50.190;19.178;2022-12-20T16:24:49;63.92;;;28.55;;
41101;SDS011;26845;50.190;19.178;2022-12-20T16:27:16;46.05;;;17.52;;
41101;SDS011;26845;50.190;19.178;2022-12-20T16:29:43;63.08;;;29.92;;
41101;SDS011;26845;50.190;19.178;2022-12-20T16:32:21;65.97;;;28.92;;
41101;SDS011;26845;50.190;19.178;2022-12-20T16:34:49;58.55;;;26.07;;
41101;SDS011;26845;50.190;19.178;2022-12-20T16:37:17;54.40;;;27.87;;
41101;SDS011;26845;50.190;19.178;2022-12-20T16:39:44;68.20;;;30.35;;
41101;SDS011;26845;50.190;19.178;2022-12-20T16:42:16;67.10;;;28.90;;
41101;SDS011;26845;50.190;19.178;2022-12-20T16:44:42;54.77;;;26.80;;
41101;SDS011;26845;50.190;19.178;2022-12-20T16:47:10;53.55;;;23.98;;
41101;SDS011;26845;50.190;19.178;2022-12-20T16:49:36;56.65;;;26.50;;
41101;SDS011;26845;50.190;19.178;2022-12-20T16:52:03;54.25;;;24.35;;
41101;SDS011;26845;50.190;19.178;2022-12-20T16:54:31;45.20;;;23.38;;
41101;SDS011;26845;50.190;19.178;2022-12-20T16:56:58;49.30;;;22.80;;
41101;SDS011;26845;50.190;19.178;2022-12-20T16:59:27;54.08;;;26.73;;
41101;SDS011;26845;50.190;19.178;2022-12-20T17:01:54;47.53;;;23.25;;
41101;SDS011;26845;50.190;19.178;2022-12-20T17:04:22;47.33;;;24.18;;
41101;SDS011;26845;50.190;19.178;2022-12-20T17:06:51;41.73;;;21.93;;
41101;SDS011;26845;50.190;19.178;2022-12-20T17:09:19;45.03;;;23.25;;
41101;SDS011;26845;50.190;19.178;2022-12-20T17:11:46;42.55;;;23.47;;
41101;SDS011;26845;50.190;19.178;2022-12-20T17:14:15;42.05;;;22.58;;
41101;SDS011;26845;50.190;19.178;2022-12-20T17:16:44;47.48;;;23.22;;
41101;SDS011;26845;50.190;19.178;2022-12-20T17:19:10;44.27;;;22.95;;
41101;SDS011;26845;50.190;19.178;2022-12-20T17:21:43;42.15;;;20.40;;